Time;durP1;ratioP1;P1;durP2;ratioP2;P2;SDS_P1;SDS_P2;PMS_P1;PMS_P2;Temp;Humidity;BMP_temperature;BMP_pressure;BME280_temperature;BME280_humidity;BME280_pressure;Samples;Min_cycle;Max_cycle;Signal;HPM_P1;HPM_P2
2021/07/21 00:00:30;;;;;;;30.50;15.75;;;;;;;15.05;74.25;102094.00;5074267;28;20153;-62
2021/07/21 00:02:56;;;;;;;31.65;16.05;;;;;;;14.93;75.34;102089.50;5070489;28;20458;-62
2021/07/21 00:05:23;;;;;;;32.75;16.58;;;;;;;14.96;75.91;102103.69;5074072;28;20033;-63
2021/07/21 00:07:49;;;;;;;31.88;16.10;;;;;;;14.93;74.88;102095.69;5074470;28;20047;-64
2021/07/21 00:10:16;;;;;;;31.92;16.25;;;;;;;14.91;74.90;102097.47;5074126;28;20459;-62
2021/07/21 00:15:40;;;;;;;32.55;16.58;;;;;;;14.79;75.54;102100.94;5029681;28;20033;-65
2021/07/21 00:18:22;;;;;;;31.98;17.48;;;;;;;14.70;76.74;102108.84;5031958;28;20037;-63
2021/07/21 00:20:48;;;;;;;33.35;16.77;;;;;;;14.72;76.96;102101.78;5032052;28;20400;-64
2021/07/21 00:23:15;;;;;;;32.00;16.85;;;;;;;14.74;76.41;102101.81;5015155;28;20037;-64
2021/07/21 00:25:40;;;;;;;31.95;16.35;;;;;;;14.82;76.15;102103.63;5031755;28;20045;-64
2021/07/21 00:28:06;;;;;;;30.83;16.00;;;;;;;14.72;76.87;102095.56;5031104;28;20376;-62
2021/07/21 00:30:32;;;;;;;31.95;17.00;;;;;;;14.61;76.40;102099.03;5031636;28;20538;-63
2021/07/21 00:32:57;;;;;;;30.40;15.73;;;;;;;14.58;76.86;102100.75;5031485;28;20520;-62
2021/07/21 00:35:23;;;;;;;31.40;16.58;;;;;;;14.52;77.55;102103.34;5031761;28;20439;-62
2021/07/21 00:37:48;;;;;;;33.13;17.92;;;;;;;14.45;78.83;102091.78;5031494;28;20069;-62
2021/07/21 00:40:15;;;;;;;31.35;16.60;;;;;;;14.41;79.05;102090.84;5031452;28;20041;-66
2021/07/21 00:42:41;;;;;;;31.42;16.35;;;;;;;14.47;78.70;102092.69;5031503;28;20045;-67
2021/07/21 00:45:08;;;;;;;31.42;16.73;;;;;;;14.56;77.67;102087.44;5031048;28;20046;-66
2021/07/21 00:47:34;;;;;;;30.83;15.90;;;;;;;14.57;76.92;102085.66;5031326;28;20038;-66
2021/07/21 00:49:59;;;;;;;32.45;16.33;;;;;;;14.47;77.82;102096.25;5031373;28;20484;-67
2021/07/21 00:52:24;;;;;;;31.95;15.93;;;;;;;14.34;77.92;102099.66;5059579;28;20044;-66
2021/07/21 00:54:50;;;;;;;33.58;17.13;;;;;;;14.25;79.32;102099.59;5073275;28;20029;-67
2021/07/21 00:57:17;;;;;;;31.23;16.67;;;;;;;14.17;79.40;102095.97;5073408;28;20024;-67
2021/07/21 00:59:44;;;;;;;34.22;16.65;;;;;;;14.22;80.37;102089.81;5072991;28;20464;-66
2021/07/21 01:02:09;;;;;;;30.35;15.95;;;;;;;14.20;80.77;102091.56;5073079;28;20051;-66
2021/07/21 01:04:37;;;;;;;30.10;15.18;;;;;;;14.20;79.56;102091.56;5073029;28;20063;-66
2021/07/21 01:07:05;;;;;;;31.00;15.45;;;;;;;14.15;79.30;102097.72;5073060;28;20020;-66
2021/07/21 01:09:35;;;;;;;30.73;16.85;;;;;;;14.11;79.87;102099.44;5073088;28;20103;-65
2021/07/21 01:12:35;;;;;;;29.48;16.08;;;;;;;14.22;77.93;102094.25;5073342;28;20078;-67
2021/07/21 01:15:10;;;;;;;28.67;14.45;;;;;;;14.17;79.35;102088.88;4991394;28;20049;-65
2021/07/21 01:17:46;;;;;;;28.15;14.38;;;;;;;14.15;78.10;102101.25;4991695;28;20555;-66
2021/07/21 01:20:18;;;;;;;30.40;15.95;;;;;;;14.16;79.04;102102.19;4991539;28;20038;-66
2021/07/21 01:22:47;;;;;;;32.47;17.15;;;;;;;14.13;79.67;102101.25;4991482;28;20040;-66
2021/07/21 01:25:36;;;;;;;32.08;15.85;;;;;;;14.10;78.12;102095.91;4975003;28;20053;-67
2021/07/21 01:28:02;;;;;;;28.88;15.13;;;;;;;13.88;78.29;102093.94;4952553;29;20541;-65
2021/07/21 01:30:35;;;;;;;31.60;15.55;;;;;;;13.80;78.96;102099.13;4952793;29;20039;-65
2021/07/21 01:33:09;;;;;;;;;;;;;;;13.84;75.62;102097.41;4953111;29;20035;-65
2021/07/21 01:35:46;;;;;;;31.10;15.98;;;;;;;13.59;78.95;102092.72;4952674;29;19926;-65
2021/07/21 01:38:17;;;;;;;30.02;16.00;;;;;;;13.53;80.41;102095.31;4952411;29;20039;-65
2021/07/21 01:40:46;;;;;;;28.80;15.32;;;;;;;13.47;80.48;102097.91;4952403;28;20042;-64
2021/07/21 01:43:16;;;;;;;32.50;15.50;;;;;;;13.51;80.62;102104.13;4952491;29;20035;-65
2021/07/21 01:45:45;;;;;;;29.45;15.77;;;;;;;13.51;81.06;102099.69;4952239;29;20051;-63
2021/07/21 01:48:13;;;;;;;31.67;16.40;;;;;;;13.52;80.88;102098.81;4952379;29;20039;-64
2021/07/21 01:50:39;;;;;;;30.85;15.63;;;;;;;13.57;80.75;102099.78;4970743;28;20465;-64
2021/07/21 01:53:05;;;;;;;29.73;15.75;;;;;;;13.57;80.77;102094.47;5030382;28;20045;-65
2021/07/21 01:55:31;;;;;;;28.98;15.73;;;;;;;13.58;81.49;102096.22;5030334;28;20116;-64
2021/07/21 01:57:57;;;;;;;31.13;17.08;;;;;;;13.45;82.66;102098.75;5030535;28;20029;-66
2021/07/21 02:00:22;;;;;;;33.88;18.77;;;;;;;13.33;83.51;102100.31;5030342;28;20029;-65
2021/07/21 02:02:51;;;;;;;32.10;17.80;;;;;;;13.25;83.84;102102.88;5030387;28;20030;-64
2021/07/21 02:05:19;;;;;;;31.55;17.27;;;;;;;13.28;83.85;102103.78;5054457;28;20036;-65
2021/07/21 02:07:46;;;;;;;28.73;16.02;;;;;;;13.31;82.48;102106.47;5072431;28;20035;-63
2021/07/21 02:10:17;;;;;;;28.95;15.82;;;;;;;13.27;81.41;102102.03;5072585;28;20113;-62
2021/07/21 02:12:44;;;;;;;30.55;16.27;;;;;;;13.24;81.47;102109.06;5072315;28;20108;-64
2021/07/21 02:15:10;;;;;;;29.30;16.02;;;;;;;13.25;81.64;102107.28;5072709;28;20071;-64
2021/07/21 02:17:39;;;;;;;29.98;16.35;;;;;;;13.12;83.28;102111.56;5072109;28;20033;-62
2021/07/21 02:20:06;;;;;;;29.75;16.85;;;;;;;13.08;83.68;102117.69;5071984;28;20111;-62
2021/07/21 02:22:32;;;;;;;30.25;17.25;;;;;;;13.05;83.42;102107.91;5072229;28;20024;-62
2021/07/21 02:24:59;;;;;;;30.02;16.45;;;;;;;12.96;84.07;102115.75;5072443;28;20344;-62
2021/07/21 02:27:25;;;;;;;29.83;16.67;;;;;;;12.98;83.11;102110.47;5066036;28;20406;-62
2021/07/21 02:29:52;;;;;;;29.88;16.50;;;;;;;12.95;83.75;102118.41;5072366;28;20108;-62
2021/07/21 02:32:25;;;;;;;30.45;16.27;;;;;;;12.97;84.16;102116.66;5072068;28;20032;-62
2021/07/21 02:34:51;;;;;;;31.05;16.08;;;;;;;12.90;84.01;102119.22;5071878;28;20023;-62
2021/07/21 02:37:19;;;;;;;31.20;16.48;;;;;;;12.87;83.39;102116.53;5072396;28;20078;-62
2021/07/21 02:39:47;;;;;;;30.38;16.70;;;;;;;12.85;83.84;102107.63;5072277;28;20101;-62
2021/07/21 02:42:14;;;;;;;29.33;16.27;;;;;;;12.93;83.09;102114.81;5072013;28;20035;-62
2021/07/21 02:44:41;;;;;;;30.50;17.42;;;;;;;12.81;82.96;102121.72;5072109;28;20036;-62
2021/07/21 02:47:07;;;;;;;31.30;17.95;;;;;;;12.78;83.38;102116.38;5071690;28;20054;-62
2021/07/21 02:49:32;;;;;;;31.17;16.70;;;;;;;12.81;83.40;102110.22;5071994;28;20104;-62
2021/07/21 02:52:08;;;;;;;30.27;16.45;;;;;;;12.67;85.27;102112.66;5073841;28;20025;-65
2021/07/21 02:55:02;;;;;;;30.17;16.33;;;;;;;12.74;84.07;102106.56;5073038;28;20074;-67
2021/07/21 02:58:00;;;;;;;29.58;16.52;;;;;;;12.67;84.37;102104.72;4990580;28;20053;-66
2021/07/21 03:00:28;;;;;;;29.40;16.95;;;;;;;12.54;85.67;102107.16;4955274;29;20036;-66
2021/07/21 03:02:54;;;;;;;30.35;17.23;;;;;;;12.48;86.10;102111.44;4955342;28;20046;-66
2021/07/21 03:05:23;;;;;;;31.30;17.13;;;;;;;12.54;86.81;102112.47;4954997;29;20050;-66
2021/07/21 03:07:52;;;;;;;29.35;16.48;;;;;;;12.53;86.58;102134.53;4954972;29;20130;-67
2021/07/21 03:10:18;;;;;;;30.80;17.67;;;;;;;12.63;86.29;102129.41;4955147;29;20073;-65
2021/07/21 03:12:56;;;;;;;30.52;16.42;;;;;;;12.68;85.04;102130.34;4955059;28;20042;-66
2021/07/21 03:15:24;;;;;;;30.75;16.85;;;;;;;12.82;85.61;102131.47;4954963;28;20091;-66
2021/07/21 03:17:53;;;;;;;30.80;17.08;;;;;;;12.68;85.91;102130.34;4954890;29;20122;-65
2021/07/21 03:20:21;;;;;;;29.98;16.98;;;;;;;12.60;86.54;102129.34;4954850;28;20024;-65
2021/07/21 03:22:48;;;;;;;31.98;17.77;;;;;;;12.55;87.17;102131.91;4954852;29;20118;-66
2021/07/21 03:25:14;;;;;;;30.40;16.30;;;;;;;12.47;86.21;102133.56;4954506;28;20073;-66
2021/07/21 03:27:41;;;;;;;30.13;16.05;;;;;;;12.53;85.27;102129.22;4954914;29;20067;-66
2021/07/21 03:30:09;;;;;;;31.35;17.52;;;;;;;12.51;86.07;102132.75;4954580;28;20450;-66
2021/07/21 03:32:37;;;;;;;31.77;18.10;;;;;;;12.37;86.82;102125.44;4954622;29;20106;-65
2021/07/21 03:35:05;;;;;;;30.60;17.42;;;;;;;12.31;87.63;102122.69;4997262;28;20052;-65
2021/07/21 03:37:32;;;;;;;30.77;17.88;;;;;;;12.21;88.67;102137.53;5063285;28;20109;-66
2021/07/21 03:39:58;;;;;;;28.65;15.93;;;;;;;12.28;87.21;102135.00;5074521;28;20419;-65
2021/07/21 03:42:28;;;;;;;29.95;16.90;;;;;;;12.29;87.09;102134.13;5075058;28;20060;-66
2021/07/21 03:44:58;;;;;;;30.63;17.65;;;;;;;12.27;87.84;102143.81;5074568;28;20032;-67
2021/07/21 03:47:26;;;;;;;29.67;16.98;;;;;;;12.24;87.53;102141.09;5074490;28;20536;-65
2021/07/21 03:49:52;;;;;;;28.88;15.32;;;;;;;12.18;86.62;102134.81;5074509;28;20032;-65
2021/07/21 03:52:19;;;;;;;29.35;15.85;;;;;;;12.09;86.24;102132.00;5074453;28;20025;-69
2021/07/21 03:54:46;;;;;;;29.70;17.00;;;;;;;12.00;87.68;102129.19;5074624;28;20035;-67
2021/07/21 03:57:12;;;;;;;31.40;17.27;;;;;;;12.00;87.88;102138.03;5074474;28;20432;-65
2021/07/21 03:59:38;;;;;;;31.45;19.08;;;;;;;11.98;88.87;102137.09;5074642;28;20028;-66
2021/07/21 04:02:06;;;;;;;32.63;18.23;;;;;;;12.01;89.37;102136.25;5074160;28;20495;-66
2021/07/21 04:04:33;;;;;;;31.48;17.92;;;;;;;12.03;90.46;102129.25;5074207;28;20028;-65
2021/07/21 04:06:59;;;;;;;33.05;19.05;;;;;;;12.07;91.33;102135.50;5074531;28;20085;-65
2021/07/21 04:09:26;;;;;;;32.30;18.45;;;;;;;12.11;90.80;102132.91;5073919;28;20036;-65
2021/07/21 04:11:55;;;;;;;31.33;17.90;;;;;;;12.16;89.81;102131.25;5074013;28;20550;-65
2021/07/21 04:14:22;;;;;;;30.67;17.63;;;;;;;12.25;88.28;102129.66;5074243;28;20025;-67
2021/07/21 04:16:49;;;;;;;32.42;18.65;;;;;;;12.28;89.57;102133.22;5074002;28;20382;-66
2021/07/21 04:19:16;;;;;;;32.17;18.05;;;;;;;12.25;89.65;102129.66;5073759;28;20475;-65
2021/07/21 04:21:46;;;;;;;30.13;17.27;;;;;;;12.31;88.64;102138.59;5074247;28;20371;-65
2021/07/21 04:24:13;;;;;;;33.17;18.58;;;;;;;12.25;89.04;102137.59;5073899;28;20029;-66
2021/07/21 04:26:40;;;;;;;32.30;18.55;;;;;;;12.28;89.52;102145.59;5073939;28;20035;-68
2021/07/21 04:29:10;;;;;;;30.35;17.67;;;;;;;12.19;90.11;102148.97;5073956;28;20016;-67
2021/07/21 04:31:37;;;;;;;31.77;18.33;;;;;;;12.28;89.53;102145.59;5073551;28;20028;-66
2021/07/21 04:34:03;;;;;;;31.17;18.27;;;;;;;12.40;89.05;102151.13;5073864;28;20036;-65
2021/07/21 04:36:29;;;;;;;31.48;18.92;;;;;;;12.31;88.98;102156.25;5073923;28;20353;-67
2021/07/21 04:38:55;;;;;;;32.72;19.77;;;;;;;12.50;88.22;102162.78;5073614;28;20028;-65
2021/07/21 04:41:22;;;;;;;35.83;20.67;;;;;;;12.52;88.79;102161.94;5073482;28;20032;-67
2021/07/21 04:43:48;;;;;;;35.63;21.63;;;;;;;12.60;88.95;102170.03;5073430;28;20020;-66
2021/07/21 04:46:16;;;;;;;35.00;22.08;;;;;;;12.56;89.38;102163.75;5073087;28;20051;-67
2021/07/21 04:48:43;;;;;;;34.38;21.13;;;;;;;12.67;nan;102160.44;5073286;28;20052;-66
2021/07/21 04:51:10;;;;;;;34.90;21.92;;;;;;;12.72;88.62;102167.56;5073336;28;20021;-65
2021/07/21 04:53:36;;;;;;;34.28;21.75;;;;;;;12.78;89.08;102174.75;5073419;28;20024;-67
2021/07/21 04:56:02;;;;;;;34.70;22.55;;;;;;;12.85;88.66;102170.44;5073170;28;20016;-65
2021/07/21 04:58:27;;;;;;;36.78;24.65;;;;;;;12.89;89.09;102175.81;5073335;28;20024;-65
2021/07/21 05:00:53;;;;;;;37.70;23.88;;;;;;;12.92;88.70;102174.97;5073056;28;20107;-66
2021/07/21 05:03:19;;;;;;;36.45;23.85;;;;;;;12.99;89.35;102167.97;5073040;28;20029;-65
2021/07/21 05:05:44;;;;;;;37.28;23.83;;;;;;;13.05;89.87;102178.72;5073091;28;20054;-65
2021/07/21 05:08:10;;;;;;;40.95;25.40;;;;;;;13.12;89.60;102177.94;5072844;28;20032;-65
2021/07/21 05:10:35;;;;;;;39.20;26.20;;;;;;;13.09;89.98;102180.53;5072890;28;20027;-64
2021/07/21 05:13:01;;;;;;;39.65;26.20;;;;;;;13.19;90.36;102176.25;5072835;28;20059;-61
2021/07/21 05:15:28;;;;;;;40.60;27.80;;;;;;;13.24;91.08;102180.75;5074504;28;20043;-62
2021/07/21 05:17:53;;;;;;;44.33;29.67;;;;;;;13.37;91.00;102181.00;5077081;28;20031;-65
2021/07/21 05:20:19;;;;;;;41.15;28.17;;;;;;;13.46;90.62;102182.88;5079307;28;20021;-63
2021/07/21 05:22:47;;;;;;;42.95;31.05;;;;;;;13.50;90.23;102182.03;5077760;28;20025;-62
2021/07/21 05:25:17;;;;;;;43.10;31.42;;;;;;;13.58;89.84;102186.56;5077498;28;20024;-64
2021/07/21 05:27:43;;;;;;;47.90;35.70;;;;;;;13.68;89.57;102190.25;5077606;28;20025;-64
2021/07/21 05:30:10;;;;;;;51.03;36.22;;;;;;;13.76;90.15;102196.56;5078123;28;20031;-63
2021/07/21 05:32:36;;;;;;;46.92;35.63;;;;;;;13.83;90.53;102191.31;5077547;28;20029;-67
2021/07/21 05:35:02;;;;;;;47.92;33.08;;;;;;;13.97;90.31;102194.16;5078218;28;20029;-64
2021/07/21 05:37:28;;;;;;;48.63;36.90;;;;;;;14.06;89.72;102189.81;5078700;28;20182;-62
2021/07/21 05:39:53;;;;;;;50.95;36.97;;;;;;;14.12;88.87;102192.56;5077312;28;20540;-61
2021/07/21 05:42:19;;;;;;;50.13;37.65;;;;;;;14.25;87.80;102193.56;5079601;28;20024;-65
2021/07/21 05:44:44;;;;;;;50.10;37.00;;;;;;;14.32;86.82;102190.97;5075424;28;20036;-64
2021/07/21 05:47:09;;;;;;;49.88;37.35;;;;;;;14.34;87.52;102195.41;5078433;28;20358;-65
2021/07/21 05:49:35;;;;;;;51.03;37.90;;;;;;;14.39;89.09;102198.16;5076318;28;20064;-63
2021/07/21 05:52:01;;;;;;;51.22;36.88;;;;;;;14.46;89.12;102194.66;5077370;28;20105;-64
2021/07/21 05:54:27;;;;;;;49.35;35.35;;;;;;;14.56;89.22;102198.28;5078686;28;20104;-65
2021/07/21 05:56:53;;;;;;;47.70;33.88;;;;;;;14.63;88.36;102198.41;5078121;28;20055;-65
2021/07/21 05:59:18;;;;;;;46.30;33.85;;;;;;;14.75;87.02;102202.03;5078091;28;20434;-66
2021/07/21 06:01:43;;;;;;;48.35;34.13;;;;;;;14.86;87.99;102199.47;5077616;28;20088;-66
2021/07/21 06:04:10;;;;;;;47.83;32.88;;;;;;;14.96;86.97;102202.22;5071737;28;20052;-64
2021/07/21 06:06:35;;;;;;;48.53;34.53;;;;;;;14.98;88.04;102200.47;5075998;28;20060;-63
2021/07/21 06:09:03;;;;;;;46.92;33.55;;;;;;;15.14;86.14;102205.91;5075471;28;20051;-65
2021/07/21 06:11:28;;;;;;;48.53;32.72;;;;;;;15.24;86.68;102201.53;5075641;28;20078;-62
2021/07/21 06:13:57;;;;;;;47.90;32.10;;;;;;;15.36;85.07;102211.38;5076850;28;20037;-65
2021/07/21 06:16:23;;;;;;;46.65;32.10;;;;;;;15.42;84.49;102206.06;5075247;28;20025;-66
2021/07/21 06:18:49;;;;;;;43.90;29.83;;;;;;;15.55;84.61;102209.69;5073532;28;20094;-62
2021/07/21 06:21:14;;;;;;;46.00;31.77;;;;;;;15.63;85.28;102214.19;5073350;28;20027;-64
2021/07/21 06:23:40;;;;;;;45.85;32.80;;;;;;;15.69;84.76;102211.53;5073243;28;20107;-64
2021/07/21 06:26:05;;;;;;;45.65;32.03;;;;;;;15.76;84.19;102216.91;5076446;28;20111;-64
2021/07/21 06:28:31;;;;;;;43.92;30.40;;;;;;;15.85;83.98;102220.53;5076908;28;20020;-63
2021/07/21 06:30:56;;;;;;;45.22;30.27;;;;;;;15.95;83.70;102217.91;5081510;28;20016;-62
2021/07/21 06:33:22;;;;;;;44.33;29.02;;;;;;;16.08;81.95;102218.88;5080389;28;20447;-63
2021/07/21 06:35:48;;;;;;;41.80;27.85;;;;;;;16.23;81.12;102216.22;5078486;28;20494;-62
2021/07/21 06:38:14;;;;;;;44.25;28.05;;;;;;;16.30;81.62;102218.00;5076959;28;20035;-61
2021/07/21 06:40:40;;;;;;;43.33;26.55;;;;;;;16.44;79.84;102225.16;5081389;28;20466;-61
2021/07/21 06:43:06;;;;;;;41.13;27.25;;;;;;;16.50;80.43;102227.84;5080278;28;20035;-61
2021/07/21 06:45:31;;;;;;;41.42;26.85;;;;;;;16.60;80.76;102223.41;5081663;28;20044;-62
2021/07/21 06:47:56;;;;;;;41.05;27.08;;;;;;;16.68;80.77;102225.19;5078111;28;20020;-63
2021/07/21 06:50:23;;;;;;;40.65;26.58;;;;;;;16.81;79.82;102238.56;5077027;28;20521;-62
2021/07/21 06:52:48;;;;;;;39.78;27.10;;;;;;;16.88;78.25;102240.38;5078756;28;20029;-65
2021/07/21 06:55:15;;;;;;;40.60;26.98;;;;;;;16.99;79.52;102235.91;5078250;28;20048;-64
2021/07/21 06:57:40;;;;;;;39.13;26.00;;;;;;;17.05;77.92;102237.69;5081630;28;20115;-64
2021/07/21 07:00:06;;;;;;;38.92;26.02;;;;;;;17.14;77.38;102236.78;5078218;28;20060;-61
2021/07/21 07:02:32;;;;;;;39.38;25.63;;;;;;;17.25;76.87;102237.66;5080689;28;20024;-65
2021/07/21 07:04:57;;;;;;;38.65;25.42;;;;;;;17.36;77.45;102238.56;5080963;28;20023;-61
2021/07/21 07:07:22;;;;;;;37.05;22.45;;;;;;;17.47;74.64;102240.31;5079105;28;20024;-61
2021/07/21 07:09:48;;;;;;;35.30;21.70;;;;;;;17.55;73.26;102246.53;5080138;28;20518;-62
2021/07/21 07:12:14;;;;;;;31.67;18.30;;;;;;;17.68;70.70;102253.63;5079650;28;20093;-61
2021/07/21 07:14:39;;;;;;;31.25;17.45;;;;;;;17.83;70.33;102249.13;5077665;28;20017;-62
2021/07/21 07:17:04;;;;;;;30.48;16.48;;;;;;;17.93;67.25;102254.44;5074634;28;20470;-62
2021/07/21 07:19:30;;;;;;;30.48;16.40;;;;;;;18.05;67.81;102245.47;5074716;28;20021;-61
2021/07/21 07:21:55;;;;;;;30.10;15.70;;;;;;;18.16;67.37;102242.78;5074612;28;20459;-61
2021/07/21 07:24:21;;;;;;;31.77;16.90;;;;;;;18.27;68.74;102253.41;5074759;28;20068;-62
2021/07/21 07:26:47;;;;;;;30.35;15.75;;;;;;;18.33;67.65;102252.47;5074718;28;20520;-62
2021/07/21 07:29:12;;;;;;;28.23;14.45;;;;;;;18.43;65.86;102252.41;5074739;28;20020;-61
2021/07/21 07:31:37;;;;;;;28.58;14.90;;;;;;;18.49;65.26;102250.59;5065269;28;20382;-61
2021/07/21 07:34:03;;;;;;;28.40;14.63;;;;;;;18.57;65.46;102257.69;5065024;28;20048;-61
2021/07/21 07:36:28;;;;;;;27.90;14.45;;;;;;;18.65;64.76;102257.63;5069320;28;20024;-60
2021/07/21 07:38:54;;;;;;;27.95;13.18;;;;;;;18.78;62.48;102258.44;5069483;28;20165;-61
2021/07/21 07:41:20;;;;;;;26.35;12.65;;;;;;;18.85;62.63;102248.56;5069866;28;20025;-60
2021/07/21 07:43:50;;;;;;;25.63;12.45;;;;;;;18.94;61.78;102257.44;5070112;28;20024;-61
2021/07/21 07:46:16;;;;;;;28.33;13.20;;;;;;;18.95;59.79;102251.19;5069447;28;20086;-61
2021/07/21 07:48:41;;;;;;;26.77;12.52;;;;;;;19.05;60.67;102267.19;5069658;28;20104;-61
2021/07/21 07:51:06;;;;;;;25.25;11.80;;;;;;;19.11;58.71;102268.00;5074039;28;20533;-61
2021/07/21 07:53:32;;;;;;;26.23;12.15;;;;;;;19.26;60.72;102269.66;5074856;28;20024;-61
2021/07/21 07:55:57;;;;;;;25.35;11.65;;;;;;;19.34;60.30;102265.13;5074449;28;20486;-61
2021/07/21 07:58:23;;;;;;;26.35;11.45;;;;;;;19.45;57.96;102270.38;5074246;28;20420;-61
2021/07/21 08:00:49;;;;;;;26.17;12.00;;;;;;;19.57;59.76;102271.16;5074622;28;20021;-61
2021/07/21 08:03:14;;;;;;;26.85;11.77;;;;;;;19.67;56.32;102262.09;5070340;28;20532;-61
2021/07/21 08:05:39;;;;;;;25.92;11.20;;;;;;;19.79;56.97;102263.78;5071304;28;20303;-61
2021/07/21 08:08:05;;;;;;;26.05;11.50;;;;;;;19.88;55.63;102263.69;5074672;28;20025;-61
2021/07/21 08:10:31;;;;;;;25.55;11.63;;;;;;;19.98;56.74;102268.03;5080707;28;20097;-61
2021/07/21 08:12:56;;;;;;;25.40;11.50;;;;;;;20.10;56.16;102266.97;5073903;28;20056;-62
2021/07/21 08:15:22;;;;;;;26.02;11.13;;;;;;;20.20;55.01;102257.91;5076768;28;20059;-61
2021/07/21 08:17:47;;;;;;;26.08;11.02;;;;;;;20.33;54.63;102257.75;5077583;28;20025;-64
2021/07/21 08:20:13;;;;;;;24.48;10.73;;;;;;;20.52;54.97;102272.66;5079577;28;20100;-63
2021/07/21 08:22:41;;;;;;;25.55;12.30;;;;;;;20.67;54.19;102268.00;5074173;28;20047;-61
2021/07/21 08:25:19;;;;;;;24.83;11.10;;;;;;;20.76;53.55;102273.22;5076998;28;20032;-64
2021/07/21 08:27:44;;;;;;;27.20;11.95;;;;;;;20.83;50.69;102274.03;5075609;28;20143;-62
2021/07/21 08:30:14;;;;;;;25.23;11.63;;;;;;;20.90;53.27;102276.59;5076871;28;20035;-64
2021/07/21 08:32:48;;;;;;;25.15;11.30;;;;;;;20.93;51.54;102283.72;5076441;28;20039;-64
2021/07/21 08:35:14;;;;;;;23.73;9.73;;;;;;;20.98;51.35;102275.56;5074772;28;20024;-64
2021/07/21 08:37:41;;;;;;;24.15;10.60;;;;;;;21.00;49.41;102273.72;5078586;28;20025;-61
2021/07/21 08:40:08;;;;;;;23.88;10.10;;;;;;;21.19;51.57;102275.22;5079226;28;20036;-62
2021/07/21 08:42:33;;;;;;;23.33;9.27;;;;;;;21.42;51.32;102276.56;5077932;28;20491;-62
2021/07/21 08:44:59;;;;;;;31.77;10.13;;;;;;;21.61;49.49;102269.09;5076119;28;20033;-61
2021/07/21 08:47:25;;;;;;;25.23;10.00;;;;;;;22.22;48.56;102266.03;5079314;28;20035;-61
2021/07/21 08:49:50;;;;;;;22.83;9.30;;;;;;;23.02;47.21;102268.69;5073822;28;20029;-61
2021/07/21 08:52:16;;;;;;;23.20;9.52;;;;;;;23.38;46.81;102271.38;5073037;28;20099;-61
2021/07/21 08:54:46;;;;;;;23.02;9.50;;;;;;;23.21;44.93;102267.34;5072693;28;20483;-61
2021/07/21 08:57:13;;;;;;;24.00;9.90;;;;;;;23.04;45.82;102267.72;5072630;28;20024;-62
2021/07/21 08:59:41;;;;;;;23.73;8.80;;;;;;;22.90;45.95;102256.41;5073070;28;20047;-62
2021/07/21 09:02:10;;;;;;;23.38;8.43;;;;;;;22.94;44.87;102261.69;5072990;28;20161;-62
2021/07/21 09:04:36;;;;;;;22.48;8.30;;;;;;;23.01;45.72;102266.91;5072699;28;20880;-63
2021/07/21 09:07:03;;;;;;;22.67;8.90;;;;;;;23.00;45.22;102265.16;5073001;28;20024;-61
2021/07/21 09:09:29;;;;;;;22.77;8.95;;;;;;;23.01;45.42;102258.81;5073259;28;20021;-61
2021/07/21 09:11:56;;;;;;;22.48;8.18;;;;;;;23.03;44.61;102259.69;5072912;28;20375;-61
2021/07/21 09:14:21;;;;;;;21.40;7.80;;;;;;;22.94;41.73;102264.38;5073098;28;20024;-61
2021/07/21 09:17:14;;;;;;;22.42;8.07;;;;;;;23.12;44.44;102264.84;5073002;28;20044;-62
2021/07/21 09:19:44;;;;;;;22.88;9.10;;;;;;;22.98;43.54;102268.78;5070404;28;20016;-62
2021/07/21 09:22:20;;;;;;;22.15;8.57;;;;;;;23.19;44.54;102271.00;5072927;28;20378;-62
2021/07/21 09:25:06;;;;;;;23.30;8.35;;;;;;;23.28;42.86;102270.72;5072654;28;20032;-61
2021/07/21 09:27:31;;;;;;;22.38;8.05;;;;;;;23.34;42.76;102270.56;5068688;28;20032;-62
2021/07/21 09:29:57;;;;;;;22.88;8.25;;;;;;;23.53;42.64;102275.47;5072648;28;20047;-62
2021/07/21 09:32:22;;;;;;;21.02;8.10;;;;;;;23.65;41.18;102270.63;5072846;28;20478;-61
2021/07/21 09:34:52;;;;;;;22.33;8.27;;;;;;;23.83;41.51;102268.31;5071251;28;20027;-63
2021/07/21 09:37:20;;;;;;;21.48;7.75;;;;;;;23.99;40.66;102269.66;5072598;28;20027;-61
2021/07/21 09:39:50;;;;;;;21.90;8.15;;;;;;;24.15;40.44;102262.00;5073036;28;20032;-62
2021/07/21 09:42:16;;;;;;;23.58;8.45;;;;;;;24.22;41.62;102264.50;5072452;28;20020;-62
2021/07/21 09:44:44;;;;;;;23.00;8.00;;;;;;;24.41;40.77;102270.25;5072464;28;20491;-63
2021/07/21 09:47:11;;;;;;;21.45;7.95;;;;;;;24.48;41.52;102264.59;5072500;28;20044;-61
2021/07/21 09:49:37;;;;;;;21.20;7.38;;;;;;;24.39;39.46;102263.97;5072394;28;20128;-62
2021/07/21 09:52:24;;;;;;;20.75;7.03;;;;;;;24.52;40.78;102268.06;5072554;28;20064;-62
2021/07/21 09:55:05;;;;;;;21.30;7.50;;;;;;;24.75;40.89;102261.94;5071046;28;20028;-61
2021/07/21 09:57:30;;;;;;;20.88;7.30;;;;;;;24.94;38.50;102269.44;5072718;28;20021;-62
2021/07/21 09:59:57;;;;;;;19.60;6.50;;;;;;;25.24;38.82;102262.09;5072867;28;20486;-63
2021/07/21 10:02:25;;;;;;;21.90;7.13;;;;;;;25.96;36.23;102266.72;5076645;28;20029;-61
2021/07/21 10:04:51;;;;;;;22.65;7.47;;;;;;;27.22;34.68;102266.19;5075211;28;20024;-62
2021/07/21 10:09:56;;;;;;;22.58;8.20;;;;;;;30.02;29.36;102272.44;5076682;28;20127;-62
2021/07/21 10:12:21;;;;;;;19.92;7.13;;;;;;;31.06;27.84;102272.00;5076332;28;20123;-62
2021/07/21 10:14:56;;;;;;;21.63;6.93;;;;;;;31.73;28.36;102274.28;5076334;28;20542;-62
2021/07/21 10:17:22;;;;;;;20.95;7.05;;;;;;;32.27;27.30;102260.81;5076555;28;20017;-62
2021/07/21 10:19:47;;;;;;;20.90;7.53;;;;;;;32.98;25.58;102260.66;5073209;28;20025;-62
2021/07/21 10:22:13;;;;;;;21.85;7.53;;;;;;;33.64;24.79;102271.59;5075988;28;20056;-62
2021/07/21 10:24:39;;;;;;;21.17;7.22;;;;;;;33.61;23.75;102264.50;5074245;28;20044;-63
2021/07/21 10:27:05;;;;;;;22.40;7.63;;;;;;;33.85;23.31;102256.38;5073571;28;20025;-65
2021/07/21 10:29:31;;;;;;;21.33;7.88;;;;;;;34.42;22.57;102248.56;5076089;28;20085;-63
2021/07/21 10:31:57;;;;;;;22.17;8.18;;;;;;;34.92;22.01;102253.94;5083321;28;20070;-63
2021/07/21 10:34:23;;;;;;;22.80;8.15;;;;;;;35.22;21.00;102260.78;5068592;28;20013;-64
2021/07/21 10:36:49;;;;;;;21.80;8.05;;;;;;;35.57;21.31;102255.25;5078203;28;20024;-64
2021/07/21 10:39:18;;;;;;;22.20;7.95;;;;;;;35.81;21.99;102250.66;5081053;28;20035;-64
2021/07/21 10:41:46;;;;;;;21.15;8.43;;;;;;;35.95;22.36;102250.41;5079639;28;20486;-64
2021/07/21 10:44:14;;;;;;;22.48;8.93;;;;;;;35.57;21.48;102255.25;5082522;28;20031;-63
2021/07/21 10:46:42;;;;;;;21.60;8.43;;;;;;;35.24;22.38;102264.28;5077034;28;20051;-62
2021/07/21 10:49:31;;;;;;;21.33;8.20;;;;;;;36.34;21.92;102256.38;5077806;28;20040;-63
2021/07/21 10:55:06;;;;;;;22.92;8.82;;;;;;;36.56;21.64;102257.34;5079591;28;20428;-63
2021/07/21 11:00:28;;;;;;;23.27;9.27;;;;;;;37.27;19.71;102262.31;5077280;28;20125;-63
2021/07/21 11:03:13;;;;;;;21.85;8.93;;;;;;;37.46;19.80;102262.41;5078147;28;20034;-65
2021/07/21 11:05:50;;;;;;;22.75;9.00;;;;;;;37.54;19.27;102256.22;5079221;28;20037;-64
2021/07/21 11:08:26;;;;;;;22.10;8.80;;;;;;;37.91;19.91;102252.94;5077725;28;20037;-64
2021/07/21 11:10:54;;;;;;;22.23;9.32;;;;;;;37.78;19.43;102255.94;5080223;28;20034;-64
2021/07/21 11:13:28;;;;;;;24.05;8.77;;;;;;;37.76;19.27;102246.94;5078877;28;20131;-64
2021/07/21 11:15:54;;;;;;;23.05;8.98;;;;;;;37.92;18.55;102243.63;5077804;28;20024;-64
2021/07/21 11:18:22;;;;;;;22.13;9.43;;;;;;;37.67;18.49;102247.72;5078744;28;20077;-64
2021/07/21 11:21:01;;;;;;;21.95;9.00;;;;;;;38.50;19.19;102239.28;5080531;28;20031;-64
2021/07/21 11:23:45;;;;;;;23.48;9.32;;;;;;;38.66;19.12;102244.25;5080526;28;20038;-66
2021/07/21 11:26:52;;;;;;;21.55;8.55;;;;;;;39.10;19.83;102241.88;5078223;28;20031;-62